createdAt,value
2019-03-30T00:01:29.126Z,29.23
2019-03-30T00:04:00.913Z,27.50
2019-03-30T00:06:32.128Z,27.27
2019-03-30T00:09:03.801Z,26.25
2019-03-30T00:11:34.719Z,27.13
2019-03-30T00:14:05.966Z,23.55
2019-03-30T00:16:37.204Z,24.10
2019-03-30T00:19:08.352Z,24.10
2019-03-30T00:21:39.930Z,24.18
2019-03-30T00:24:10.328Z,22.77
2019-03-30T00:26:43.010Z,24.47
2019-03-30T00:29:13.669Z,22.70
2019-03-30T00:31:44.365Z,23.47
2019-03-30T00:34:17.862Z,23.30
2019-03-30T00:36:49.220Z,22.50
2019-03-30T00:39:21.261Z,24.47
2019-03-30T00:41:52.411Z,24.45
2019-03-30T00:44:23.560Z,24.72
2019-03-30T00:46:53.778Z,23.30
2019-03-30T00:49:28.183Z,25.45
2019-03-30T00:51:59.161Z,23.73
2019-03-30T00:54:31.194Z,23.95
2019-03-30T00:57:01.457Z,24.70
2019-03-30T00:59:32.250Z,24.15
2019-03-30T01:02:02.983Z,24.67
2019-03-30T01:04:35.257Z,25.20
2019-03-30T01:07:07.113Z,25.57
2019-03-30T01:09:37.435Z,26.50
2019-03-30T01:12:12.461Z,26.07
2019-03-30T01:14:42.795Z,25.48
2019-03-30T01:17:13.522Z,24.57
2019-03-30T01:19:44.254Z,24.57
2019-03-30T01:22:17.444Z,22.73
2019-03-30T01:24:48.279Z,22.05
2019-03-30T01:27:21.398Z,22.32
2019-03-30T01:29:52.924Z,22.07
2019-03-30T01:32:23.859Z,21.68
2019-03-30T01:34:55.304Z,22.22
2019-03-30T01:37:27.263Z,21.90
2019-03-30T01:39:58.715Z,21.50
2019-03-30T01:42:29.954Z,22.17
2019-03-30T01:45:02.025Z,21.90
2019-03-30T01:47:32.589Z,22.70
2019-03-30T01:50:16.680Z,21.55
2019-03-30T01:52:36.779Z,20.68
2019-03-30T01:55:08.322Z,21.50
2019-03-30T01:57:40.127Z,21.20
2019-03-30T02:00:12.041Z,19.98
2019-03-30T02:02:42.376Z,20.57
2019-03-30T02:05:15.165Z,21.65
2019-03-30T02:07:45.579Z,21.82
2019-03-30T02:10:19.582Z,22.00
2019-03-30T02:12:52.160Z,20.32
2019-03-30T02:15:25.967Z,21.52
2019-03-30T02:17:57.009Z,19.32
2019-03-30T02:20:44.947Z,21.05
2019-03-30T02:23:15.684Z,20.20
2019-03-30T02:25:46.627Z,19.50
2019-03-30T02:28:18.157Z,22.30
2019-03-30T02:30:49.908Z,19.95
2019-03-30T02:33:20.960Z,21.37
2019-03-30T02:35:51.697Z,22.22
2019-03-30T02:38:23.565Z,20.00
2019-03-30T02:40:54.591Z,20.72
2019-03-30T02:43:25.123Z,20.90
2019-03-30T02:45:56.081Z,20.35
2019-03-30T02:48:28.777Z,21.73
2019-03-30T02:50:59.259Z,20.37
2019-03-30T02:53:30.059Z,20.82
2019-03-30T02:56:02.955Z,21.85
2019-03-30T02:58:35.471Z,21.45
2019-03-30T03:01:07.000Z,22.77
2019-03-30T03:03:39.202Z,23.20
2019-03-30T03:06:09.491Z,23.20
2019-03-30T03:08:40.843Z,24.02
2019-03-30T03:11:11.573Z,26.25
2019-03-30T03:13:43.018Z,27.80
2019-03-30T03:16:15.181Z,28.35
2019-03-30T03:18:46.136Z,28.45
2019-03-30T03:21:17.083Z,30.25
2019-03-30T03:23:48.306Z,29.92
2019-03-30T03:26:20.439Z,29.32
2019-03-30T03:28:52.643Z,28.92
2019-03-30T03:31:25.723Z,27.85
2019-03-30T03:33:57.901Z,29.40
2019-03-30T03:36:28.225Z,29.25
2019-03-30T03:38:58.839Z,27.32
2019-03-30T03:41:29.594Z,27.58
2019-03-30T03:44:00.410Z,28.90
2019-03-30T03:46:32.598Z,27.42
2019-03-30T03:49:03.217Z,27.65
2019-03-30T03:51:34.759Z,27.65
2019-03-30T03:54:05.702Z,26.90
2019-03-30T03:56:36.017Z,27.62
2019-03-30T03:59:06.758Z,28.90
2019-03-30T04:01:38.128Z,28.85
2019-03-30T04:04:09.142Z,30.10
2019-03-30T04:06:41.301Z,29.27
2019-03-30T04:09:13.234Z,29.90
2019-03-30T04:11:43.897Z,32.17
2019-03-30T04:14:18.015Z,29.55
2019-03-30T04:16:48.431Z,29.90
2019-03-30T04:19:20.566Z,31.73
2019-03-30T04:21:53.007Z,30.88
2019-03-30T04:24:23.396Z,31.37
2019-03-30T04:26:55.155Z,31.15
2019-03-30T04:29:25.882Z,31.73
2019-03-30T04:31:57.344Z,34.67
2019-03-30T04:34:28.379Z,35.23
2019-03-30T04:37:01.037Z,40.00
2019-03-30T04:39:31.883Z,42.30
2019-03-30T04:42:02.615Z,45.20
2019-03-30T04:44:34.784Z,43.05
2019-03-30T04:47:05.412Z,48.90
2019-03-30T04:49:36.967Z,46.42
2019-03-30T04:52:07.244Z,48.95
2019-03-30T04:54:40.166Z,50.83
2019-03-30T04:57:12.026Z,50.17
2019-03-30T04:59:43.681Z,48.38
2019-03-30T05:02:15.746Z,52.65
2019-03-30T05:04:46.168Z,48.02
2019-03-30T05:07:18.337Z,48.98
2019-03-30T05:09:49.497Z,48.08
2019-03-30T05:12:21.426Z,45.60
2019-03-30T05:14:52.069Z,46.65
2019-03-30T05:17:23.891Z,48.05
2019-03-30T05:19:54.661Z,48.08
2019-03-30T05:22:27.532Z,45.35
2019-03-30T05:24:57.837Z,46.10
2019-03-30T05:27:28.459Z,43.33
2019-03-30T05:30:00.858Z,38.98
2019-03-30T05:32:31.562Z,43.83
2019-03-30T05:35:02.435Z,42.43
2019-03-30T05:37:34.295Z,37.15
2019-03-30T05:40:07.202Z,39.03
2019-03-30T05:42:37.605Z,35.00
2019-03-30T05:45:08.845Z,37.00
2019-03-30T05:47:40.802Z,36.20
2019-03-30T05:50:11.616Z,40.48
2019-03-30T05:52:46.880Z,33.98
2019-03-30T05:55:17.803Z,35.43
2019-03-30T05:57:51.113Z,30.10
2019-03-30T06:00:23.891Z,31.33
2019-03-30T06:02:54.721Z,31.27
2019-03-30T06:05:27.412Z,29.98
2019-03-30T06:08:00.692Z,29.80
2019-03-30T06:10:31.000Z,28.27
2019-03-30T06:13:01.862Z,31.80
2019-03-30T06:15:33.616Z,28.60
2019-03-30T06:18:04.955Z,28.25
2019-03-30T06:20:36.915Z,29.67
2019-03-30T06:23:08.908Z,28.10
2019-03-30T06:25:39.921Z,30.35
2019-03-30T06:28:10.971Z,28.17
2019-03-30T06:30:44.478Z,27.45
2019-03-30T06:33:16.342Z,28.50
2019-03-30T06:35:47.452Z,29.85
2019-03-30T06:38:20.810Z,28.87
2019-03-30T06:40:51.988Z,29.67
2019-03-30T06:43:22.625Z,29.70
2019-03-30T06:45:53.353Z,27.80
2019-03-30T06:48:25.010Z,27.45
2019-03-30T06:50:56.518Z,27.98
2019-03-30T06:53:26.881Z,26.77
2019-03-30T06:55:58.125Z,29.05
2019-03-30T06:58:31.924Z,28.62
2019-03-30T07:01:02.126Z,29.60
2019-03-30T07:03:33.087Z,28.47
2019-03-30T07:06:03.622Z,26.10
2019-03-30T07:08:35.171Z,27.07
2019-03-30T07:11:20.254Z,27.02
2019-03-30T07:13:38.687Z,25.30
2019-03-30T07:16:09.417Z,25.95
2019-03-30T07:18:40.816Z,27.50
2019-03-30T07:21:11.596Z,26.62
2019-03-30T07:23:42.794Z,27.67
2019-03-30T07:26:13.475Z,24.77
2019-03-30T07:28:47.109Z,22.50
2019-03-30T07:31:17.091Z,26.60
2019-03-30T07:33:48.537Z,25.43
2019-03-30T07:36:19.198Z,27.52
2019-03-30T07:38:49.899Z,27.75
2019-03-30T07:41:20.431Z,26.50
2019-03-30T07:43:53.458Z,21.57
2019-03-30T07:46:24.247Z,22.67
2019-03-30T07:48:54.897Z,19.67
2019-03-30T07:51:25.712Z,22.37
2019-03-30T07:53:57.574Z,20.00
2019-03-30T07:56:28.307Z,21.82
2019-03-30T07:58:58.977Z,20.82
2019-03-30T08:01:31.201Z,23.60
2019-03-30T08:04:05.415Z,24.98
2019-03-30T08:06:37.321Z,21.93
2019-03-30T08:09:07.802Z,19.02
2019-03-30T08:11:39.350Z,20.25
2019-03-30T08:14:10.235Z,17.45
2019-03-30T08:16:42.253Z,17.90
2019-03-30T08:19:12.884Z,19.55
2019-03-30T08:21:44.944Z,18.25
2019-03-30T08:24:15.690Z,17.20
2019-03-30T08:26:46.411Z,15.32
2019-03-30T08:29:20.623Z,16.97
2019-03-30T08:31:51.867Z,16.23
2019-03-30T08:34:23.518Z,16.55
2019-03-30T08:36:54.665Z,16.82
2019-03-30T08:39:26.317Z,18.07
2019-03-30T08:41:57.050Z,18.42
2019-03-30T08:44:28.499Z,17.55
2019-03-30T08:47:00.972Z,20.70
2019-03-30T08:49:31.296Z,19.87
2019-03-30T08:52:02.640Z,19.60
2019-03-30T08:54:32.976Z,19.75
2019-03-30T08:57:03.812Z,21.75
2019-03-30T08:59:35.147Z,20.90
2019-03-30T09:02:06.187Z,20.82
2019-03-30T09:04:37.632Z,19.30
2019-03-30T09:07:08.981Z,17.60
2019-03-30T09:09:40.253Z,18.30
2019-03-30T09:12:12.092Z,20.05
2019-03-30T09:14:42.615Z,19.62
2019-03-30T09:17:14.883Z,18.75
2019-03-30T09:19:45.313Z,19.48
2019-03-30T09:22:16.469Z,18.50
2019-03-30T09:24:48.508Z,19.62
2019-03-30T09:27:21.291Z,19.17
2019-03-30T09:29:51.919Z,18.95
2019-03-30T09:32:24.090Z,19.15
2019-03-30T09:34:54.863Z,18.90
2019-03-30T09:37:27.237Z,18.57
2019-03-30T09:39:57.718Z,18.77
2019-03-30T09:42:28.460Z,19.12
2019-03-30T09:44:58.884Z,23.83
2019-03-30T09:47:32.166Z,17.40
2019-03-30T09:50:03.539Z,16.35
2019-03-30T09:52:34.006Z,16.05
2019-03-30T09:55:06.300Z,17.70
2019-03-30T09:57:36.536Z,16.25
2019-03-30T10:00:07.279Z,15.90
2019-03-30T10:02:38.099Z,16.82
2019-03-30T10:05:08.831Z,16.80
2019-03-30T10:07:39.462Z,16.40
2019-03-30T10:10:11.221Z,16.75
2019-03-30T10:12:41.717Z,18.82
2019-03-30T10:15:14.122Z,17.23
2019-03-30T10:17:44.539Z,18.87
2019-03-30T10:20:15.275Z,18.87
2019-03-30T10:22:46.010Z,18.45
2019-03-30T10:25:16.769Z,18.27
2019-03-30T10:27:47.372Z,16.90
2019-03-30T10:30:20.659Z,16.50
2019-03-30T10:32:51.808Z,17.00
2019-03-30T10:35:22.537Z,15.00
2019-03-30T10:37:53.270Z,15.60
2019-03-30T10:40:24.307Z,15.20
2019-03-30T10:42:55.157Z,14.98
2019-03-30T10:45:27.412Z,14.87
2019-03-30T10:47:59.376Z,14.55
2019-03-30T10:50:29.807Z,14.05
2019-03-30T10:53:00.636Z,16.67
2019-03-30T10:55:32.392Z,16.37
2019-03-30T10:58:03.129Z,16.48
2019-03-30T11:00:36.274Z,15.90
2019-03-30T11:03:08.485Z,16.12
2019-03-30T11:05:39.623Z,16.42
2019-03-30T11:08:11.280Z,17.20
2019-03-30T11:10:41.904Z,17.25
2019-03-30T11:13:15.708Z,18.00
2019-03-30T11:15:46.152Z,17.12
2019-03-30T11:18:18.695Z,17.35
2019-03-30T11:20:50.269Z,15.60
2019-03-30T11:23:20.603Z,16.10
2019-03-30T11:25:52.035Z,15.98
2019-03-30T11:28:23.666Z,16.82
2019-03-30T11:30:54.419Z,17.25
2019-03-30T11:33:24.756Z,17.12
2019-03-30T11:35:57.130Z,20.15
2019-03-30T11:38:28.256Z,18.05
2019-03-30T11:41:00.525Z,18.23
2019-03-30T11:43:31.270Z,16.93
2019-03-30T11:46:04.540Z,16.85
2019-03-30T11:48:37.649Z,15.72
2019-03-30T11:51:08.784Z,17.92
2019-03-30T11:53:39.819Z,16.97
2019-03-30T11:56:10.452Z,16.75
2019-03-30T11:58:41.692Z,18.45
2019-03-30T12:01:13.858Z,18.25
2019-03-30T12:03:44.958Z,17.00
2019-03-30T12:06:15.940Z,19.45
2019-03-30T12:08:48.299Z,18.12
2019-03-30T12:11:19.466Z,17.75
2019-03-30T12:13:50.187Z,17.92
2019-03-30T12:16:21.022Z,19.00
2019-03-30T12:18:52.468Z,16.40
2019-03-30T12:21:25.448Z,18.52
2019-03-30T12:23:57.620Z,19.60
2019-03-30T12:26:28.713Z,20.35
2019-03-30T12:29:02.136Z,18.37
2019-03-30T12:31:33.404Z,19.37
2019-03-30T12:34:04.446Z,18.52
2019-03-30T12:36:35.477Z,16.97
2019-03-30T12:39:06.521Z,17.35
2019-03-30T12:41:37.598Z,17.07
2019-03-30T12:44:08.292Z,16.67
2019-03-30T12:46:41.583Z,18.13
2019-03-30T12:49:13.783Z,17.27
2019-03-30T12:51:44.596Z,16.62
2019-03-30T12:54:15.532Z,17.70
2019-03-30T12:56:46.584Z,16.15
2019-03-30T12:59:17.416Z,17.95
2019-03-30T13:01:50.793Z,16.67
2019-03-30T13:04:23.779Z,17.20
2019-03-30T13:06:55.670Z,17.77
2019-03-30T13:09:26.272Z,18.30
2019-03-30T13:11:57.820Z,17.37
2019-03-30T13:14:28.560Z,17.23
2019-03-30T13:17:00.291Z,16.90
2019-03-30T13:19:31.853Z,17.67
2019-03-30T13:22:02.453Z,21.57
2019-03-30T13:24:35.579Z,18.07
2019-03-30T13:27:07.232Z,18.02
2019-03-30T13:29:39.193Z,17.25
2019-03-30T13:32:11.916Z,17.00
2019-03-30T13:34:43.950Z,18.23
2019-03-30T13:37:18.744Z,18.05
2019-03-30T13:39:50.739Z,20.40
2019-03-30T13:42:21.455Z,17.77
2019-03-30T13:44:52.087Z,17.32
2019-03-30T13:47:23.946Z,18.92
2019-03-30T13:49:55.502Z,18.25
2019-03-30T13:52:27.049Z,16.12
2019-03-30T13:54:57.482Z,15.80
2019-03-30T13:57:27.988Z,17.40
2019-03-30T14:00:00.389Z,16.95
2019-03-30T14:02:31.623Z,17.27
2019-03-30T14:05:03.206Z,17.07
2019-03-30T14:07:35.481Z,17.75
2019-03-30T14:10:07.184Z,17.55
2019-03-30T14:12:39.062Z,17.25
2019-03-30T14:15:11.190Z,17.65
2019-03-30T14:17:44.101Z,18.20
2019-03-30T14:20:14.834Z,17.95
2019-03-30T14:22:47.120Z,19.23
2019-03-30T14:25:18.450Z,21.73
2019-03-30T14:27:48.881Z,18.55
2019-03-30T14:30:20.639Z,19.40
2019-03-30T14:32:52.640Z,22.05
2019-03-30T14:35:24.137Z,21.48
2019-03-30T14:37:55.080Z,25.35
2019-03-30T14:40:25.510Z,20.82
2019-03-30T14:42:56.761Z,21.48
2019-03-30T14:45:27.693Z,21.97
2019-03-30T14:47:58.835Z,21.45
2019-03-30T14:50:29.258Z,26.37
2019-03-30T14:52:59.790Z,22.00
2019-03-30T14:55:30.746Z,21.57
2019-03-30T14:58:01.458Z,21.27
2019-03-30T15:00:34.243Z,22.95
2019-03-30T15:03:06.922Z,20.73
2019-03-30T15:05:38.467Z,20.82
2019-03-30T15:08:10.928Z,20.40
2019-03-30T15:10:42.744Z,22.20
2019-03-30T15:13:13.738Z,20.92
2019-03-30T15:15:45.485Z,22.52
2019-03-30T15:18:16.961Z,23.12
2019-03-30T15:20:48.065Z,22.90
2019-03-30T15:23:19.025Z,22.27
2019-03-30T15:25:51.089Z,22.77
2019-03-30T15:28:21.511Z,24.32
2019-03-30T15:30:52.244Z,22.25
2019-03-30T15:33:24.803Z,22.67
2019-03-30T15:35:58.838Z,23.57
2019-03-30T15:38:29.355Z,20.60
2019-03-30T15:41:03.055Z,22.93
2019-03-30T15:43:38.427Z,21.48
2019-03-30T15:46:06.377Z,22.40
2019-03-30T15:48:36.630Z,22.52
2019-03-30T15:51:07.946Z,22.67
2019-03-30T15:53:38.670Z,23.87
2019-03-30T15:56:09.233Z,28.45
2019-03-30T15:58:40.652Z,23.83
2019-03-30T16:01:12.284Z,25.75
2019-03-30T16:03:42.721Z,25.80
2019-03-30T16:06:13.351Z,25.40
2019-03-30T16:08:48.697Z,25.23
2019-03-30T16:11:20.042Z,26.57
2019-03-30T16:13:51.592Z,26.25
2019-03-30T16:16:22.179Z,28.20
2019-03-30T16:18:55.309Z,28.57
2019-03-30T16:21:25.736Z,29.25
2019-03-30T16:23:58.619Z,29.98
2019-03-30T16:26:41.816Z,30.52
2019-03-30T16:29:04.892Z,32.75
2019-03-30T16:31:35.322Z,32.65
2019-03-30T16:34:08.208Z,32.73
2019-03-30T16:36:39.046Z,36.42
2019-03-30T16:39:11.378Z,34.67
2019-03-30T16:41:43.578Z,35.73
2019-03-30T16:44:14.303Z,34.10
2019-03-30T16:46:45.669Z,35.50
2019-03-30T16:49:16.905Z,35.73
2019-03-30T16:51:47.219Z,36.80
2019-03-30T16:54:17.777Z,34.10
2019-03-30T16:56:51.874Z,36.38
2019-03-30T16:59:22.193Z,33.65
2019-03-30T17:01:55.164Z,35.65
2019-03-30T17:04:29.405Z,33.13
2019-03-30T17:06:59.502Z,32.93
2019-03-30T17:09:30.096Z,35.43
2019-03-30T17:12:01.989Z,36.08
2019-03-30T17:14:32.313Z,38.58
2019-03-30T17:17:03.455Z,34.25
2019-03-30T17:19:35.474Z,37.28
2019-03-30T17:22:06.693Z,37.73
2019-03-30T17:24:38.418Z,37.85
2019-03-30T17:27:08.739Z,31.17
2019-03-30T17:29:40.125Z,39.48
2019-03-30T17:32:11.632Z,37.33
2019-03-30T17:34:42.372Z,34.67
2019-03-30T17:37:14.644Z,33.28
2019-03-30T17:39:45.171Z,34.45
2019-03-30T17:42:15.998Z,36.88
2019-03-30T17:44:46.635Z,33.23
2019-03-30T17:47:19.925Z,33.15
2019-03-30T17:49:51.126Z,32.75
2019-03-30T17:52:23.442Z,35.75
2019-03-30T17:54:54.171Z,37.95
2019-03-30T17:57:25.725Z,39.80
2019-03-30T17:59:57.379Z,42.17
2019-03-30T18:02:29.532Z,43.95
2019-03-30T18:05:00.581Z,44.38
2019-03-30T18:07:33.348Z,45.52
2019-03-30T18:10:05.021Z,46.35
2019-03-30T18:12:35.343Z,44.35
2019-03-30T18:15:06.377Z,43.45
2019-03-30T18:17:36.691Z,44.40
2019-03-30T18:20:09.378Z,45.20
2019-03-30T18:22:40.728Z,46.00
2019-03-30T18:25:11.048Z,43.33
2019-03-30T18:27:42.602Z,50.83
2019-03-30T18:30:12.929Z,47.53
2019-03-30T18:32:43.861Z,43.52
2019-03-30T18:35:15.255Z,42.30
2019-03-30T18:37:46.847Z,48.87
2019-03-30T18:40:29.165Z,52.65
2019-03-30T18:43:00.088Z,45.63
2019-03-30T18:45:31.850Z,48.80
2019-03-30T18:48:11.193Z,43.95
2019-03-30T18:50:42.129Z,42.73
2019-03-30T18:53:12.653Z,44.27
2019-03-30T18:55:44.034Z,42.27
2019-03-30T18:58:14.741Z,48.52
2019-03-30T19:00:45.979Z,46.28
2019-03-30T19:03:20.063Z,45.75
2019-03-30T19:05:49.697Z,42.43
2019-03-30T19:08:20.427Z,43.73
2019-03-30T19:10:51.574Z,48.13
2019-03-30T19:13:22.615Z,46.73
2019-03-30T19:15:55.505Z,44.67
2019-03-30T19:18:26.228Z,45.95
2019-03-30T19:20:56.455Z,45.73
2019-03-30T19:23:28.920Z,46.37
2019-03-30T19:26:03.547Z,43.95
2019-03-30T19:28:34.992Z,41.40
2019-03-30T19:31:05.731Z,42.15
2019-03-30T19:33:37.181Z,40.33
2019-03-30T19:36:10.060Z,45.70
2019-03-30T19:38:39.564Z,42.40
2019-03-30T19:41:10.292Z,44.48
2019-03-30T19:43:40.924Z,43.92
2019-03-30T19:46:13.115Z,44.63
2019-03-30T19:48:45.565Z,46.88
2019-03-30T19:51:16.502Z,46.60
2019-03-30T19:53:48.461Z,48.00
2019-03-30T19:56:19.095Z,50.12
2019-03-30T19:58:49.722Z,50.35
2019-03-30T20:01:21.181Z,51.70
2019-03-30T20:03:52.072Z,52.40
2019-03-30T20:06:23.972Z,53.87
2019-03-30T20:08:54.805Z,54.80
2019-03-30T20:11:26.357Z,55.10
2019-03-30T20:13:57.017Z,52.98
2019-03-30T20:16:30.565Z,55.23
2019-03-30T20:19:12.039Z,48.70
2019-03-30T20:21:35.158Z,51.92
2019-03-30T20:24:08.062Z,53.35
2019-03-30T20:26:38.885Z,52.43
2019-03-30T20:29:24.399Z,52.03
2019-03-30T20:31:46.482Z,51.60
2019-03-30T20:34:17.028Z,51.37
2019-03-30T20:36:47.605Z,53.25
2019-03-30T20:39:18.911Z,52.83
2019-03-30T20:41:51.429Z,52.25
2019-03-30T20:44:22.981Z,54.45
2019-03-30T20:46:54.632Z,53.60
2019-03-30T20:49:26.390Z,55.00
2019-03-30T20:51:57.032Z,54.83
2019-03-30T20:54:28.548Z,55.75
2019-03-30T20:56:59.735Z,53.08
2019-03-30T20:59:39.952Z,56.20
2019-03-30T21:02:05.075Z,55.15
2019-03-30T21:04:35.555Z,61.83
2019-03-30T21:07:06.095Z,62.98
2019-03-30T21:09:36.958Z,62.45
2019-03-30T21:12:09.224Z,58.98
2019-03-30T21:14:39.963Z,59.73
2019-03-30T21:17:11.200Z,55.80
2019-03-30T21:19:41.938Z,53.95
2019-03-30T21:22:13.489Z,60.33
2019-03-30T21:24:44.889Z,59.40
2019-03-30T21:27:15.771Z,58.25
2019-03-30T21:29:54.586Z,60.00
2019-03-30T21:32:22.257Z,62.17
2019-03-30T21:34:53.100Z,61.25
2019-03-30T21:37:25.242Z,58.52
2019-03-30T21:39:58.009Z,60.40
2019-03-30T21:42:29.878Z,59.88
2019-03-30T21:45:02.368Z,62.20
2019-03-30T21:47:32.741Z,59.30
2019-03-30T21:50:04.699Z,64.97
2019-03-30T21:52:35.054Z,62.20
2019-03-30T21:55:06.733Z,68.12
2019-03-30T21:57:40.645Z,66.47
2019-03-30T22:00:11.824Z,69.70
2019-03-30T22:02:43.840Z,67.82
2019-03-30T22:05:17.276Z,66.70
2019-03-30T22:07:48.789Z,67.75
2019-03-30T22:10:22.084Z,67.95
2019-03-30T22:12:54.957Z,67.62
2019-03-30T22:15:29.193Z,65.15
2019-03-30T22:18:00.011Z,67.65
2019-03-30T22:20:31.974Z,70.12
2019-03-30T22:23:03.767Z,66.40
2019-03-30T22:25:35.281Z,66.05
2019-03-30T22:28:08.664Z,67.32
2019-03-30T22:30:39.311Z,65.75
2019-03-30T22:33:09.899Z,67.92
2019-03-30T22:35:40.572Z,70.30
2019-03-30T22:38:11.304Z,69.62
2019-03-30T22:40:45.515Z,68.22
2019-03-30T22:43:16.421Z,68.67
2019-03-30T22:45:47.185Z,71.87
2019-03-30T22:48:18.635Z,71.07
2019-03-30T22:50:49.447Z,69.03
2019-03-30T22:53:20.515Z,68.07
2019-03-30T22:55:52.111Z,70.83
2019-03-30T22:58:23.721Z,69.20
2019-03-30T23:00:56.293Z,72.05
2019-03-30T23:03:26.926Z,72.42
2019-03-30T23:05:57.650Z,71.15
2019-03-30T23:08:28.971Z,73.60
2019-03-30T23:11:01.575Z,72.92
2019-03-30T23:13:32.718Z,74.87
2019-03-30T23:16:06.929Z,76.75
2019-03-30T23:18:39.335Z,77.97
2019-03-30T23:21:09.831Z,77.10
2019-03-30T23:23:40.460Z,76.33
2019-03-30T23:26:11.090Z,77.03
2019-03-30T23:28:42.025Z,73.78
2019-03-30T23:31:13.576Z,75.60
2019-03-30T23:33:44.210Z,71.10
2019-03-30T23:36:14.845Z,71.50
2019-03-30T23:38:45.674Z,70.95
2019-03-30T23:41:16.504Z,72.03
2019-03-30T23:43:48.150Z,71.60
2019-03-30T23:46:18.898Z,70.22
2019-03-30T23:48:50.099Z,71.60
2019-03-30T23:51:21.594Z,72.82
2019-03-30T23:53:57.032Z,66.97
2019-03-30T23:56:29.176Z,65.87
2019-03-30T23:59:03.000Z,50.43
